Beebe, Arkansas
Current Conditions -  °F | °C
As of 1:56 PM on Thursday 29 Jan 2015 (Local Time) from KSRC Reporting Station
Clear Clear  
Wind Chill: 57°   Ceiling: Unl
Heat Index: 57°   Visibility: 10mi
Dew Point: 40°   Wind: 15mph
Humidity: 53%   Direction: 350°N
Pressure: 30.19"   Gusts: 22mph
Location:  35.07°N, 91.88°W
Report Text: KSRC 291956Z AUTO 35013G19KT 10SM CLR 14/04 A3019 RMK AO2 SLP231 T01390044 TSNO
Loading
Personal Weather Stations






























Interactive Weather Map New forecast layout! Learn more

10-Day Weather Forecast

Advertisements
Track Severe Weather on mobile